Time;durP1;ratioP1;P1;durP2;ratioP2;P2;SDS_P1;SDS_P2;PMS_P1;PMS_P2;Temp;Humidity;BMP_temperature;BMP_pressure;BME280_temperature;BME280_humidity;BME280_pressure;Samples;Min_cycle;Max_cycle;Signal;HPM_P1;HPM_P2
2023/08/01 00:01:46;;;;;;;0.80;0.80;;;22.20;75.40;;;;;;4867881;29;43540;-74
2023/08/01 00:04:14;;;;;;;0.90;0.90;;;22.10;75.70;;;;;;4871859;29;45124;-74
2023/08/01 00:06:42;;;;;;;1.00;1.00;;;22.10;76.10;;;;;;4884510;29;43498;-74
2023/08/01 00:09:10;;;;;;;0.80;0.80;;;22.10;76.10;;;;;;4884025;29;43427;-73
2023/08/01 00:11:39;;;;;;;1.00;1.00;;;22.10;76.10;;;;;;4877250;29;43458;-73
2023/08/01 00:14:07;;;;;;;1.00;1.00;;;22.00;75.80;;;;;;4872047;29;43927;-73
2023/08/01 00:16:36;;;;;;;0.90;0.90;;;22.00;76.40;;;;;;4879856;29;43450;-73
2023/08/01 00:19:04;;;;;;;0.90;0.90;;;22.00;76.40;;;;;;4875934;29;43432;-73
2023/08/01 00:21:32;;;;;;;1.00;1.00;;;22.10;76.20;;;;;;4881290;29;43374;-74
2023/08/01 00:24:00;;;;;;;1.00;1.00;;;22.20;75.80;;;;;;4881309;29;43606;-73
2023/08/01 00:26:28;;;;;;;1.00;1.00;;;22.30;75.20;;;;;;4880120;29;43392;-73
2023/08/01 00:28:57;;;;;;;0.90;0.90;;;22.40;74.90;;;;;;4865126;29;43892;-73
2023/08/01 00:31:25;;;;;;;1.10;1.10;;;22.40;74.90;;;;;;4880349;29;43456;-73
2023/08/01 00:33:53;;;;;;;0.97;0.97;;;22.40;75.00;;;;;;4877482;29;43731;-71
2023/08/01 00:36:21;;;;;;;1.10;1.10;;;22.30;75.30;;;;;;4860060;29;44407;-71
2023/08/01 00:38:49;;;;;;;1.00;1.00;;;22.20;75.50;;;;;;4860316;29;43876;-70
2023/08/01 00:41:17;;;;;;;1.10;1.10;;;22.20;75.60;;;;;;4862404;29;43495;-71
2023/08/01 00:43:45;;;;;;;1.00;1.00;;;22.10;75.70;;;;;;4857886;29;43782;-70
2023/08/01 00:46:15;;;;;;;1.07;1.07;;;22.10;75.70;;;;;;4844912;29;44726;-71
2023/08/01 00:48:43;;;;;;;1.00;1.00;;;22.10;76.20;;;;;;4840300;29;43346;-71
2023/08/01 00:51:12;;;;;;;1.07;1.07;;;22.00;76.10;;;;;;4860962;29;43397;-70
2023/08/01 00:53:40;;;;;;;1.00;1.00;;;22.00;76.10;;;;;;4858811;29;43612;-70
2023/08/01 00:56:08;;;;;;;1.10;1.10;;;22.00;76.00;;;;;;4855941;29;43831;-71
2023/08/01 00:58:36;;;;;;;1.00;1.00;;;22.00;76.40;;;;;;4857665;29;43443;-71
2023/08/01 01:01:04;;;;;;;0.97;0.97;;;22.00;76.60;;;;;;4862726;29;43446;-73
2023/08/01 01:03:34;;;;;;;1.00;1.00;;;22.00;76.40;;;;;;4841907;29;45384;-71
2023/08/01 01:06:04;;;;;;;1.07;1.07;;;22.10;75.90;;;;;;4858339;29;43370;-70
2023/08/01 01:08:32;;;;;;;1.20;1.20;;;22.30;75.50;;;;;;4861973;29;43401;-69
2023/08/01 01:11:00;;;;;;;1.00;1.00;;;22.40;75.20;;;;;;4845873;29;43436;-69
2023/08/01 01:13:28;;;;;;;1.17;1.17;;;22.40;75.10;;;;;;4859345;29;43591;-70
2023/08/01 01:15:56;;;;;;;1.00;1.00;;;22.40;75.20;;;;;;4865282;29;43899;-69
2023/08/01 01:18:24;;;;;;;1.20;1.20;;;22.30;75.10;;;;;;4858674;29;43454;-70
2023/08/01 01:20:54;;;;;;;1.00;1.00;;;22.20;75.70;;;;;;4839526;29;43500;-69
2023/08/01 01:23:22;;;;;;;0.90;0.90;;;22.20;75.80;;;;;;4839144;29;45369;-69
2023/08/01 01:25:51;;;;;;;1.00;1.00;;;22.10;75.80;;;;;;4860669;29;43484;-70
2023/08/01 01:28:19;;;;;;;1.10;1.10;;;22.10;75.80;;;;;;4839574;29;43436;-69
2023/08/01 01:30:47;;;;;;;1.07;1.07;;;22.10;76.10;;;;;;4860476;29;43346;-70
2023/08/01 01:33:15;;;;;;;1.00;1.00;;;22.00;76.40;;;;;;4857390;29;43969;-69
2023/08/01 01:35:43;;;;;;;1.10;1.10;;;22.00;76.40;;;;;;4873285;29;44045;-69
2023/08/01 01:38:13;;;;;;;0.77;0.77;;;22.00;76.30;;;;;;4879722;29;44025;-70
2023/08/01 01:40:41;;;;;;;1.10;1.10;;;22.00;76.30;;;;;;4875901;29;43830;-70
2023/08/01 01:43:09;;;;;;;1.10;1.10;;;21.90;76.70;;;;;;4879463;29;43652;-69
2023/08/01 01:45:37;;;;;;;1.03;1.03;;;22.00;76.70;;;;;;4880601;29;43945;-70
2023/08/01 01:48:05;;;;;;;1.00;1.00;;;22.10;76.50;;;;;;4876464;29;43372;-69
2023/08/01 01:50:34;;;;;;;1.10;1.10;;;22.20;76.00;;;;;;4871417;29;43545;-70
2023/08/01 01:53:02;;;;;;;1.10;1.10;;;22.30;75.70;;;;;;4875634;29;43901;-69
2023/08/01 01:55:31;;;;;;;1.07;1.07;;;22.30;75.40;;;;;;4856323;29;44992;-70
2023/08/01 01:58:01;;;;;;;0.97;0.97;;;22.30;75.40;;;;;;4862541;29;43484;-69
2023/08/01 02:00:32;;;;;;;1.00;1.00;;;22.20;75.40;;;;;;4858296;29;43467;-69
2023/08/01 02:03:02;;;;;;;0.90;0.90;;;22.10;75.90;;;;;;4878977;29;43519;-71
2023/08/01 02:05:31;;;;;;;1.03;1.03;;;22.10;76.00;;;;;;4862399;29;44658;-70
2023/08/01 02:07:59;;;;;;;1.10;1.10;;;22.10;76.10;;;;;;4878796;29;43456;-69
2023/08/01 02:10:27;;;;;;;0.93;0.93;;;22.00;76.00;;;;;;4857181;29;43416;-69
2023/08/01 02:12:56;;;;;;;1.10;1.10;;;22.00;76.20;;;;;;4882743;29;43614;-69
2023/08/01 02:15:25;;;;;;;1.00;1.00;;;22.00;76.60;;;;;;4863226;29;44774;-72
2023/08/01 02:17:53;;;;;;;1.00;1.00;;;22.00;76.60;;;;;;4863926;29;43325;-73
2023/08/01 02:20:21;;;;;;;1.20;1.20;;;21.90;76.40;;;;;;4862397;29;44122;-73
2023/08/01 02:22:49;;;;;;;1.00;1.00;;;21.90;76.30;;;;;;4872005;29;45364;-72
2023/08/01 02:25:17;;;;;;;1.00;1.00;;;21.90;76.90;;;;;;4875685;29;43329;-69
2023/08/01 02:27:45;;;;;;;1.10;1.10;;;21.90;76.80;;;;;;4878572;29;43405;-69
2023/08/01 02:30:14;;;;;;;0.93;0.93;;;22.00;76.60;;;;;;4876992;29;43387;-69
2023/08/01 02:32:43;;;;;;;1.00;1.00;;;22.10;76.20;;;;;;4861311;29;45436;-69
2023/08/01 02:35:12;;;;;;;1.10;1.10;;;22.20;75.70;;;;;;4874603;29;43583;-73
2023/08/01 02:37:40;;;;;;;1.10;1.10;;;22.30;75.50;;;;;;4874119;29;43427;-75
2023/08/01 02:40:10;;;;;;;0.90;0.90;;;22.20;75.40;;;;;;4874852;29;43458;-73
2023/08/01 02:42:38;;;;;;;1.07;1.07;;;22.20;75.40;;;;;;4878245;29;43901;-72
2023/08/01 02:45:06;;;;;;;1.00;1.00;;;22.10;76.00;;;;;;4859332;29;44690;-72
2023/08/01 02:47:36;;;;;;;1.10;1.10;;;22.10;76.10;;;;;;4864669;29;43355;-72
2023/08/01 02:50:08;;;;;;;1.00;1.00;;;22.10;76.20;;;;;;4875130;29;44106;-74
2023/08/01 02:52:36;;;;;;;1.00;1.00;;;22.00;76.10;;;;;;4877809;29;43719;-72
2023/08/01 02:55:04;;;;;;;1.10;1.10;;;22.00;76.10;;;;;;4875136;29;44713;-73
2023/08/01 02:57:32;;;;;;;0.90;0.90;;;21.90;76.60;;;;;;4879484;29;43327;-72
2023/08/01 03:00:00;;;;;;;1.00;1.00;;;22.00;76.60;;;;;;4878033;29;43429;-73
2023/08/01 03:02:28;;;;;;;1.00;1.00;;;21.90;76.50;;;;;;4879361;29;43596;-73
2023/08/01 03:04:58;;;;;;;0.93;0.93;;;21.90;76.40;;;;;;4873350;29;43540;-73
2023/08/01 03:07:25;;;;;;;0.93;0.93;;;21.90;76.50;;;;;;4878424;29;44015;-72
2023/08/01 03:09:55;;;;;;;1.00;1.00;;;21.80;76.80;;;;;;4875195;29;43577;-73
2023/08/01 03:12:23;;;;;;;1.03;1.03;;;21.90;76.70;;;;;;4860559;29;46399;-72
2023/08/01 03:14:51;;;;;;;1.10;1.10;;;22.10;76.40;;;;;;4860014;29;44757;-72
2023/08/01 03:17:19;;;;;;;0.90;0.90;;;22.20;75.90;;;;;;4863637;29;43406;-74
2023/08/01 03:19:47;;;;;;;1.20;1.20;;;22.30;75.40;;;;;;4871729;29;43510;-73
2023/08/01 03:22:16;;;;;;;1.00;1.00;;;22.30;75.10;;;;;;4856702;29;45545;-74
2023/08/01 03:24:44;;;;;;;1.00;1.00;;;22.30;75.20;;;;;;4859644;29;44772;-70
2023/08/01 03:27:12;;;;;;;1.10;1.10;;;22.20;75.30;;;;;;4876089;29;43801;-69
2023/08/01 03:29:40;;;;;;;1.07;1.07;;;22.10;75.70;;;;;;4883264;29;44026;-69
2023/08/01 03:32:08;;;;;;;0.93;0.93;;;22.10;75.90;;;;;;4877116;29;44053;-70
2023/08/01 03:34:39;;;;;;;1.03;1.03;;;22.10;76.00;;;;;;4875427;29;43448;-70
2023/08/01 03:37:07;;;;;;;1.00;1.00;;;22.00;75.90;;;;;;4854401;29;43443;-70
2023/08/01 03:39:36;;;;;;;0.90;0.90;;;22.00;76.10;;;;;;4872963;29;43416;-70
2023/08/01 03:42:05;;;;;;;0.97;0.97;;;21.90;76.40;;;;;;4869649;29;46361;-70
2023/08/01 03:44:33;;;;;;;1.00;1.00;;;21.90;76.40;;;;;;4875677;29;43467;-70
2023/08/01 03:47:01;;;;;;;0.90;0.90;;;21.90;76.40;;;;;;4872894;29;43443;-70
2023/08/01 03:49:28;;;;;;;1.10;1.10;;;21.90;76.30;;;;;;4858459;29;43417;-71
2023/08/01 03:51:56;;;;;;;1.10;1.10;;;21.80;76.90;;;;;;4870313;29;43570;-70
2023/08/01 03:54:27;;;;;;;1.03;1.03;;;21.90;76.70;;;;;;4864234;29;45144;-70
2023/08/01 03:56:56;;;;;;;0.90;0.90;;;22.00;76.40;;;;;;4861939;29;43401;-70
2023/08/01 03:59:26;;;;;;;0.90;0.90;;;22.10;76.00;;;;;;4879800;29;44122;-70
2023/08/01 04:01:54;;;;;;;1.00;1.00;;;22.20;75.50;;;;;;4881327;29;43921;-71
2023/08/01 04:04:22;;;;;;;1.07;1.07;;;22.30;75.40;;;;;;4864284;29;44845;-70
2023/08/01 04:06:50;;;;;;;1.00;1.00;;;22.20;75.40;;;;;;4863010;29;43465;-71
2023/08/01 04:09:18;;;;;;;0.90;0.90;;;22.20;75.40;;;;;;4877184;29;43440;-71
2023/08/01 04:11:46;;;;;;;1.20;1.20;;;22.10;76.00;;;;;;4878499;29;44005;-71
2023/08/01 04:14:16;;;;;;;1.00;1.00;;;22.10;76.00;;;;;;4876243;29;43429;-70
2023/08/01 04:16:44;;;;;;;1.00;1.00;;;22.00;76.10;;;;;;4876506;29;43423;-71
2023/08/01 04:19:12;;;;;;;0.90;0.90;;;22.00;76.00;;;;;;4881913;29;43515;-70
2023/08/01 04:21:41;;;;;;;0.90;0.90;;;22.00;76.10;;;;;;4881022;29;43598;-71
2023/08/01 04:24:08;;;;;;;1.03;1.03;;;21.90;76.60;;;;;;4877136;29;43313;-70
2023/08/01 04:26:37;;;;;;;1.07;1.07;;;21.90;76.60;;;;;;4882167;29;43355;-71
2023/08/01 04:29:06;;;;;;;1.00;1.00;;;21.90;77.30;;;;;;4872210;29;43376;-71
2023/08/01 04:31:35;;;;;;;1.20;1.20;;;21.90;76.40;;;;;;4879591;29;43614;-70
2023/08/01 04:34:03;;;;;;;1.20;1.20;;;21.80;76.90;;;;;;4874906;29;43466;-70
2023/08/01 04:36:31;;;;;;;0.90;0.90;;;21.80;76.70;;;;;;4866969;29;43413;-71
2023/08/01 04:38:59;;;;;;;1.00;1.00;;;21.90;76.40;;;;;;4875376;29;43390;-70
2023/08/01 04:41:27;;;;;;;0.90;0.90;;;22.10;76.10;;;;;;4880868;29;43675;-70
2023/08/01 04:43:55;;;;;;;1.30;1.30;;;22.20;75.60;;;;;;4882032;29;43519;-70
2023/08/01 04:46:23;;;;;;;1.00;1.00;;;22.30;75.30;;;;;;4877469;29;43357;-71
2023/08/01 04:48:53;;;;;;;1.10;1.10;;;22.30;75.40;;;;;;4875690;29;44348;-71
2023/08/01 04:51:21;;;;;;;1.00;1.00;;;22.20;75.40;;;;;;4858923;29;46042;-71
2023/08/01 04:53:49;;;;;;;1.20;1.20;;;22.10;75.70;;;;;;4878450;29;43312;-71
2023/08/01 04:56:17;;;;;;;0.90;0.90;;;22.00;76.00;;;;;;4876353;29;43383;-70
2023/08/01 04:58:45;;;;;;;1.13;1.13;;;22.10;76.30;;;;;;4864244;29;43465;-70
2023/08/01 05:01:13;;;;;;;1.10;1.10;;;22.00;76.10;;;;;;4884759;29;43964;-71
2023/08/01 05:03:41;;;;;;;1.10;1.10;;;21.90;75.90;;;;;;4878276;29;43383;-70
2023/08/01 05:06:10;;;;;;;1.27;1.27;;;21.90;76.60;;;;;;4880548;29;43441;-71
2023/08/01 05:08:38;;;;;;;1.13;1.13;;;21.90;76.70;;;;;;4875210;29;43412;-70
2023/08/01 05:11:06;;;;;;;1.20;1.20;;;21.90;76.60;;;;;;4882862;29;43935;-71
2023/08/01 05:13:34;;;;;;;1.00;1.00;;;21.90;76.40;;;;;;4873474;29;43452;-70
2023/08/01 05:16:03;;;;;;;0.97;0.97;;;21.80;76.30;;;;;;4876548;29;43418;-71
2023/08/01 05:18:31;;;;;;;1.20;1.20;;;21.80;76.90;;;;;;4858247;29;43797;-70
2023/08/01 05:20:59;;;;;;;1.10;1.10;;;21.80;76.90;;;;;;4876630;29;43710;-70
2023/08/01 05:23:28;;;;;;;1.07;1.07;;;21.80;76.80;;;;;;4878668;29;43436;-71
2023/08/01 05:25:56;;;;;;;1.10;1.10;;;21.80;76.50;;;;;;4880305;29;43389;-71
2023/08/01 05:28:24;;;;;;;1.10;1.10;;;21.80;76.60;;;;;;4879667;29;43487;-70
2023/08/01 05:30:52;;;;;;;1.20;1.20;;;21.80;77.20;;;;;;4879080;29;45508;-70
2023/08/01 05:33:20;;;;;;;1.20;1.20;;;21.80;76.90;;;;;;4859482;29;45205;-70
2023/08/01 05:35:50;;;;;;;1.20;1.20;;;21.90;76.60;;;;;;4859398;29;43940;-70
2023/08/01 05:38:18;;;;;;;1.10;1.10;;;22.00;76.10;;;;;;4881057;29;43388;-71
2023/08/01 05:40:47;;;;;;;1.13;1.13;;;22.20;75.80;;;;;;4879834;29;43598;-71
2023/08/01 05:43:22;;;;;;;1.23;1.23;;;22.20;75.30;;;;;;4879559;29;43473;-73
2023/08/01 05:45:50;;;;;;;1.03;1.03;;;22.20;75.30;;;;;;4865109;29;43626;-70
2023/08/01 05:48:20;;;;;;;1.20;1.20;;;22.20;75.30;;;;;;4882208;29;43506;-71
2023/08/01 05:50:48;;;;;;;1.10;1.10;;;22.10;75.80;;;;;;4862512;29;45711;-70
2023/08/01 05:53:16;;;;;;;0.93;0.93;;;22.10;75.90;;;;;;4871984;29;43413;-71
2023/08/01 05:55:44;;;;;;;0.90;0.90;;;22.00;75.90;;;;;;4878633;29;43396;-70
2023/08/01 05:58:14;;;;;;;1.17;1.17;;;22.00;75.80;;;;;;4877710;29;43385;-70
2023/08/01 06:00:42;;;;;;;0.97;0.97;;;21.90;76.00;;;;;;4878782;29;45838;-70
2023/08/01 06:03:10;;;;;;;1.20;1.20;;;21.90;76.50;;;;;;4862023;29;44489;-70
2023/08/01 06:05:38;;;;;;;1.00;1.00;;;21.90;76.50;;;;;;4876343;29;43422;-70
2023/08/01 06:08:07;;;;;;;1.10;1.10;;;21.90;76.30;;;;;;4877086;29;43460;-70
2023/08/01 06:10:35;;;;;;;1.10;1.10;;;21.90;76.40;;;;;;4877765;29;43867;-70
2023/08/01 06:13:03;;;;;;;1.30;1.30;;;21.80;76.90;;;;;;4881587;29;43326;-70
2023/08/01 06:15:32;;;;;;;1.20;1.20;;;21.80;76.90;;;;;;4877129;29;43473;-70
2023/08/01 06:18:00;;;;;;;1.07;1.07;;;21.80;76.80;;;;;;4881839;29;43353;-70
2023/08/01 06:20:28;;;;;;;1.10;1.10;;;21.80;76.50;;;;;;4875914;29;43606;-70
2023/08/01 06:22:56;;;;;;;1.00;1.00;;;21.80;76.50;;;;;;4874100;29;43514;-70
2023/08/01 06:25:24;;;;;;;1.10;1.10;;;21.80;77.20;;;;;;4876202;29;43412;-70
2023/08/01 06:27:52;;;;;;;1.00;1.00;;;21.80;77.00;;;;;;4877907;29;43486;-70
2023/08/01 06:30:20;;;;;;;1.10;1.10;;;21.90;76.80;;;;;;4880776;29;43669;-71
2023/08/01 06:32:49;;;;;;;1.20;1.20;;;22.00;76.40;;;;;;4879127;29;43418;-70
2023/08/01 06:35:17;;;;;;;1.20;1.20;;;22.10;75.80;;;;;;4876804;29;43507;-70
2023/08/01 06:37:45;;;;;;;1.13;1.13;;;22.20;75.50;;;;;;4880094;29;43360;-71
2023/08/01 06:40:13;;;;;;;1.27;1.27;;;22.20;75.30;;;;;;4878374;29;45735;-70
2023/08/01 06:42:42;;;;;;;1.10;1.10;;;22.20;75.30;;;;;;4876099;29;43396;-70
2023/08/01 06:45:11;;;;;;;0.97;0.90;;;22.10;75.50;;;;;;4876401;29;43401;-70
2023/08/01 06:47:39;;;;;;;1.00;1.00;;;22.10;76.70;;;;;;4878360;29;43378;-70
2023/08/01 06:50:09;;;;;;;0.97;0.97;;;22.00;76.00;;;;;;4877208;29;44060;-70
2023/08/01 06:52:37;;;;;;;1.00;1.00;;;22.10;76.00;;;;;;4874965;29;43440;-70
2023/08/01 06:55:06;;;;;;;1.10;1.10;;;22.00;75.90;;;;;;4879396;29;43353;-70
2023/08/01 06:57:34;;;;;;;1.13;1.13;;;21.90;76.40;;;;;;4876841;29;43967;-71
2023/08/01 07:00:02;;;;;;;0.90;0.90;;;21.90;76.60;;;;;;4876582;29;43837;-70
2023/08/01 07:02:30;;;;;;;1.10;1.10;;;21.90;76.60;;;;;;4876081;29;43760;-71
2023/08/01 07:04:58;;;;;;;1.10;1.10;;;21.90;76.40;;;;;;4852292;29;43457;-71
2023/08/01 07:07:28;;;;;;;1.10;1.10;;;21.90;76.40;;;;;;4877843;29;43541;-71
2023/08/01 07:09:56;;;;;;;0.90;0.90;;;21.80;77.00;;;;;;4880749;29;43607;-71
2023/08/01 07:12:24;;;;;;;1.00;1.00;;;21.80;77.60;;;;;;4878614;29;43480;-70
2023/08/01 07:14:52;;;;;;;1.00;1.00;;;21.80;76.80;;;;;;4877532;29;43460;-71
2023/08/01 07:17:20;;;;;;;1.00;1.00;;;21.80;76.50;;;;;;4874076;29;43473;-70
2023/08/01 07:19:48;;;;;;;1.03;1.03;;;21.80;76.60;;;;;;4880344;29;46200;-71
2023/08/01 07:22:16;;;;;;;0.90;0.90;;;21.70;77.10;;;;;;4883383;29;43817;-70
2023/08/01 07:24:45;;;;;;;1.10;1.10;;;21.80;77.20;;;;;;4877275;29;43508;-71
2023/08/01 07:27:13;;;;;;;0.90;0.90;;;21.90;76.80;;;;;;4864954;29;43452;-70
2023/08/01 07:29:41;;;;;;;1.10;1.10;;;22.00;76.40;;;;;;4879706;29;43611;-71
2023/08/01 07:32:09;;;;;;;1.00;1.00;;;22.10;75.80;;;;;;4880434;29;44023;-70
2023/08/01 07:34:37;;;;;;;1.13;1.13;;;22.20;75.60;;;;;;4878551;29;43292;-70
2023/08/01 07:37:05;;;;;;;1.13;1.13;;;22.20;75.40;;;;;;4883915;29;43962;-71
2023/08/01 07:39:34;;;;;;;1.07;1.07;;;22.10;75.30;;;;;;4862141;29;45711;-70
2023/08/01 07:42:04;;;;;;;0.90;0.90;;;22.10;75.90;;;;;;4881436;29;44009;-71
2023/08/01 07:44:32;;;;;;;0.93;0.93;;;22.10;76.10;;;;;;4878001;29;43503;-71
2023/08/01 07:47:03;;;;;;;0.80;0.80;;;22.10;76.10;;;;;;4871539;29;43315;-71
2023/08/01 07:49:31;;;;;;;0.90;0.90;;;22.00;76.00;;;;;;4868127;29;45728;-71
2023/08/01 07:51:59;;;;;;;0.80;0.80;;;21.90;76.10;;;;;;4863455;29;45036;-71
2023/08/01 07:54:27;;;;;;;0.83;0.83;;;21.90;76.70;;;;;;4879608;29;43408;-71
2023/08/01 07:56:55;;;;;;;0.97;0.97;;;21.90;76.70;;;;;;4873703;29;43390;-71
2023/08/01 07:59:25;;;;;;;0.80;0.80;;;21.90;76.40;;;;;;4859679;29;45374;-71
2023/08/01 08:01:53;;;;;;;1.00;1.00;;;21.90;76.50;;;;;;4876314;29;43985;-70
2023/08/01 08:04:21;;;;;;;0.90;0.90;;;21.80;76.70;;;;;;4865306;29;43869;-74
2023/08/01 08:06:49;;;;;;;0.83;0.83;;;21.80;77.00;;;;;;4876928;29;43482;-74
2023/08/01 08:09:17;;;;;;;0.90;0.90;;;21.90;76.80;;;;;;4880598;29;43863;-73
2023/08/01 08:11:45;;;;;;;0.87;0.87;;;22.00;76.40;;;;;;4858502;29;44711;-73
2023/08/01 08:14:14;;;;;;;0.80;0.80;;;22.10;75.90;;;;;;4863795;29;43402;-73
2023/08/01 08:16:43;;;;;;;1.10;1.10;;;22.20;75.60;;;;;;4877791;29;43341;-73
2023/08/01 08:19:12;;;;;;;1.50;1.07;;;22.20;75.40;;;;;;4866281;29;45719;-73
2023/08/01 08:21:40;;;;;;;0.80;0.80;;;22.20;75.40;;;;;;4877620;29;43897;-73
2023/08/01 08:24:08;;;;;;;0.87;0.87;;;22.10;75.40;;;;;;4880516;29;43355;-74
2023/08/01 08:26:37;;;;;;;0.80;0.80;;;22.10;76.10;;;;;;4874856;29;43523;-73
2023/08/01 08:29:06;;;;;;;0.90;0.90;;;22.00;76.10;;;;;;4859978;29;45673;-74
2023/08/01 08:31:34;;;;;;;1.00;1.00;;;22.00;76.00;;;;;;4864390;29;44549;-73
2023/08/01 08:34:03;;;;;;;0.90;0.90;;;21.90;75.90;;;;;;4876440;29;43529;-73
2023/08/01 08:36:31;;;;;;;0.70;0.70;;;21.90;76.10;;;;;;4878033;29;43498;-73
2023/08/01 08:39:00;;;;;;;1.00;1.00;;;21.90;76.70;;;;;;4883318;29;43653;-73
2023/08/01 08:41:29;;;;;;;0.80;0.80;;;21.90;76.70;;;;;;4858844;29;44717;-73
2023/08/01 08:43:57;;;;;;;0.87;0.87;;;21.90;76.40;;;;;;4882605;29;43437;-73
2023/08/01 08:46:26;;;;;;;0.90;0.90;;;21.80;76.40;;;;;;4880825;29;43407;-71
2023/08/01 08:48:55;;;;;;;0.80;0.80;;;21.80;77.00;;;;;;4880790;29;43614;-73
2023/08/01 08:51:26;;;;;;;0.90;0.90;;;21.80;77.00;;;;;;4859738;29;45174;-74
2023/08/01 08:53:54;;;;;;;0.80;0.80;;;21.90;76.70;;;;;;4880039;29;43374;-74
2023/08/01 08:56:23;;;;;;;0.90;0.90;;;22.00;76.30;;;;;;4877797;29;43410;-74
2023/08/01 08:58:51;;;;;;;0.90;0.90;;;22.10;75.80;;;;;;4877087;29;43615;-73
2023/08/01 09:01:19;;;;;;;0.90;0.90;;;22.20;75.60;;;;;;4878535;29;43998;-73
2023/08/01 09:03:47;;;;;;;0.80;0.80;;;22.20;75.50;;;;;;4876876;29;43941;-73
2023/08/01 09:06:16;;;;;;;1.00;1.00;;;22.10;75.50;;;;;;4880176;29;43337;-73
2023/08/01 09:08:50;;;;;;;0.97;0.97;;;22.00;75.80;;;;;;4863818;29;45940;-74
2023/08/01 09:11:18;;;;;;;0.70;0.70;;;22.00;76.10;;;;;;4875908;29;43455;-74
2023/08/01 09:13:46;;;;;;;0.80;0.80;;;22.00;76.20;;;;;;4879904;29;43432;-72
2023/08/01 09:16:14;;;;;;;0.70;0.70;;;21.90;76.10;;;;;;4875787;29;43396;-73
2023/08/01 09:18:49;;;;;;;0.80;0.80;;;21.90;76.10;;;;;;4877499;29;43691;-73
2023/08/01 09:21:19;;;;;;;0.83;0.83;;;21.90;76.70;;;;;;4880830;29;43423;-72
2023/08/01 09:23:48;;;;;;;0.80;0.80;;;21.80;76.70;;;;;;4880253;29;43441;-72
2023/08/01 09:26:16;;;;;;;0.80;0.80;;;21.80;76.60;;;;;;4880349;29;43879;-72
2023/08/01 09:28:44;;;;;;;0.80;0.80;;;21.80;76.50;;;;;;4861585;29;45365;-71
2023/08/01 09:31:14;;;;;;;0.90;0.90;;;21.80;76.60;;;;;;4880108;29;43426;-75
2023/08/01 09:33:42;;;;;;;1.00;1.00;;;21.80;77.10;;;;;;4882744;29;43540;-72
2023/08/01 09:36:10;;;;;;;0.70;0.70;;;21.80;76.80;;;;;;4881630;29;43601;-71
2023/08/01 09:38:38;;;;;;;0.90;0.90;;;21.90;76.40;;;;;;4862220;29;45739;-71
2023/08/01 09:41:08;;;;;;;0.70;0.70;;;22.00;76.10;;;;;;4880092;29;43839;-71
2023/08/01 09:43:36;;;;;;;1.00;1.00;;;22.10;75.70;;;;;;4876800;29;43566;-72
2023/08/01 09:46:04;;;;;;;0.80;0.80;;;22.10;75.60;;;;;;4860739;29;43423;-73
2023/08/01 09:48:32;;;;;;;0.80;0.80;;;22.10;75.60;;;;;;4881994;29;44033;-72
2023/08/01 09:51:10;;;;;;;0.70;0.70;;;22.00;75.70;;;;;;4876770;29;43422;-72
2023/08/01 09:53:48;;;;;;;0.80;0.80;;;21.90;76.20;;;;;;4871504;29;43396;-73
2023/08/01 09:56:18;;;;;;;0.73;0.73;;;21.90;76.30;;;;;;4882966;29;44352;-73
2023/08/01 09:58:56;;;;;;;0.70;0.70;;;21.90;76.30;;;;;;5094586;27;43664;-72
2023/08/01 10:01:26;;;;;;;0.83;0.83;;;21.90;76.20;;;;;;5084217;28;43917;-72
2023/08/01 10:03:54;;;;;;;0.70;0.70;;;21.80;76.80;;;;;;5084624;28;43411;-73
2023/08/01 10:06:23;;;;;;;0.80;0.80;;;21.80;76.70;;;;;;5085142;28;43523;-72
2023/08/01 10:08:52;;;;;;;0.70;0.70;;;21.80;76.60;;;;;;5084888;28;43611;-73
2023/08/01 10:11:22;;;;;;;0.70;0.70;;;21.80;76.50;;;;;;5084466;28;43457;-72
2023/08/01 10:13:50;;;;;;;0.90;0.90;;;21.80;76.60;;;;;;5082844;28;43434;-73
2023/08/01 10:16:19;;;;;;;0.87;0.87;;;21.70;77.00;;;;;;5082642;28;43902;-73
2023/08/01 10:18:47;;;;;;;0.90;0.90;;;21.70;77.00;;;;;;5084308;28;44010;-73
2023/08/01 10:21:17;;;;;;;0.83;0.83;;;21.90;76.70;;;;;;5082700;28;44417;-73
2023/08/01 10:23:45;;;;;;;0.70;0.70;;;22.00;76.30;;;;;;5084481;28;43418;-69
2023/08/01 10:26:13;;;;;;;0.70;0.70;;;22.10;75.80;;;;;;5082422;28;43381;-69
2023/08/01 10:28:42;;;;;;;0.87;0.87;;;22.10;75.50;;;;;;5084075;28;43608;-69
2023/08/01 10:31:11;;;;;;;0.70;0.70;;;22.10;75.50;;;;;;5083805;28;44106;-69
2023/08/01 10:33:42;;;;;;;1.00;1.00;;;22.10;75.60;;;;;;5083737;28;43422;-70
2023/08/01 10:36:17;;;;;;;0.80;0.80;;;22.00;75.80;;;;;;5084451;27;43422;-71
2023/08/01 10:38:49;;;;;;;0.90;0.90;;;22.00;76.30;;;;;;5083793;27;43625;-69
2023/08/01 10:41:25;;;;;;;0.60;0.60;;;22.00;76.30;;;;;;5081011;28;43437;-70
2023/08/01 10:44:04;;;;;;;0.80;0.80;;;21.90;76.20;;;;;;5078582;28;43427;-69
2023/08/01 10:46:46;;;;;;;0.67;0.67;;;21.90;76.30;;;;;;5083514;27;43491;-69
2023/08/01 10:49:16;;;;;;;0.80;0.80;;;21.80;76.90;;;;;;5083543;27;43595;-70
2023/08/01 10:51:44;;;;;;;0.90;0.90;;;21.80;76.80;;;;;;5083385;27;43447;-70
2023/08/01 10:54:22;;;;;;;0.70;0.70;;;21.80;76.60;;;;;;5083780;27;43410;-69
2023/08/01 10:56:50;;;;;;;0.70;0.70;;;21.80;76.60;;;;;;5083690;27;43485;-71
2023/08/01 10:59:18;;;;;;;0.80;0.80;;;21.70;76.80;;;;;;5082081;28;44765;-69
2023/08/01 11:01:47;;;;;;;0.80;0.80;;;21.70;77.10;;;;;;5083677;27;43412;-70
2023/08/01 11:04:17;;;;;;;0.70;0.70;;;21.90;76.90;;;;;;5083124;28;43470;-70
2023/08/01 11:06:46;;;;;;;0.80;0.80;;;21.90;76.40;;;;;;5074977;28;43411;-70
2023/08/01 11:09:18;;;;;;;0.70;0.70;;;22.00;75.90;;;;;;5071161;28;43695;-71
2023/08/01 11:11:46;;;;;;;0.80;0.80;;;22.10;75.60;;;;;;5062464;28;44978;-70
2023/08/01 11:14:14;;;;;;;0.70;0.70;;;22.10;75.50;;;;;;5069993;28;43880;-69
2023/08/01 11:16:43;;;;;;;0.80;0.80;;;22.10;75.60;;;;;;5067572;28;43419;-70
2023/08/01 11:19:20;;;;;;;0.97;0.97;;;22.00;75.70;;;;;;5068104;28;46279;-70
2023/08/01 11:21:48;;;;;;;0.70;0.70;;;22.00;76.30;;;;;;5069534;28;43593;-70
2023/08/01 11:24:17;;;;;;;0.80;0.80;;;21.90;76.20;;;;;;5069868;28;43398;-70
2023/08/01 11:26:46;;;;;;;0.70;0.70;;;21.90;76.20;;;;;;5069726;28;43387;-71
2023/08/01 11:29:14;;;;;;;0.53;0.53;;;21.90;76.30;;;;;;5065417;28;43843;-72
2023/08/01 11:31:42;;;;;;;0.80;0.80;;;21.80;76.60;;;;;;5068208;28;44627;-70
2023/08/01 11:34:10;;;;;;;0.80;0.80;;;21.80;76.90;;;;;;5069468;28;43475;-73
2023/08/01 11:36:40;;;;;;;0.60;0.60;;;21.80;76.60;;;;;;5069953;28;43922;-73
2023/08/01 11:39:08;;;;;;;0.90;0.90;;;21.80;76.60;;;;;;5068999;28;43645;-74
2023/08/01 11:41:36;;;;;;;0.60;0.60;;;21.80;76.60;;;;;;5067319;28;44430;-74
2023/08/01 11:44:04;;;;;;;0.80;0.80;;;21.70;77.00;;;;;;5069411;28;43395;-74
2023/08/01 11:46:33;;;;;;;0.70;0.70;;;21.70;77.10;;;;;;5069898;28;43357;-73
2023/08/01 11:49:01;;;;;;;0.70;0.70;;;21.70;76.80;;;;;;5067492;28;46010;-73
2023/08/01 11:51:29;;;;;;;0.73;0.73;;;21.70;76.70;;;;;;5068029;28;44603;-73
2023/08/01 11:54:02;;;;;;;0.80;0.80;;;21.70;76.80;;;;;;5069234;28;43421;-74
2023/08/01 11:56:31;;;;;;;0.70;0.70;;;21.70;77.40;;;;;;5069209;28;43420;-73
2023/08/01 11:58:59;;;;;;;0.80;0.80;;;21.80;77.20;;;;;;5066066;28;44025;-73
2023/08/01 12:01:28;;;;;;;0.80;0.80;;;21.90;76.80;;;;;;5069089;28;43881;-74
2023/08/01 12:03:58;;;;;;;0.80;0.80;;;22.00;76.30;;;;;;5066704;28;43375;-74
2023/08/01 12:06:26;;;;;;;0.77;0.77;;;22.10;75.80;;;;;;5069415;28;43988;-74
2023/08/01 12:08:54;;;;;;;0.80;0.80;;;22.20;75.50;;;;;;5067171;28;45686;-74
2023/08/01 12:11:25;;;;;;;0.70;0.70;;;22.20;75.40;;;;;;5069110;28;43395;-73
2023/08/01 12:14:06;;;;;;;0.80;0.80;;;22.10;75.40;;;;;;5068773;28;43417;-73
2023/08/01 12:16:34;;;;;;;0.80;0.80;;;22.00;75.80;;;;;;5068891;28;43564;-74
2023/08/01 12:19:02;;;;;;;0.80;0.80;;;22.00;76.10;;;;;;5068448;28;43699;-74
2023/08/01 12:21:31;;;;;;;0.70;0.70;;;22.00;76.10;;;;;;5066779;28;45061;-74
2023/08/01 12:23:59;;;;;;;0.87;0.87;;;21.90;76.10;;;;;;5069190;28;43905;-74
2023/08/01 12:26:29;;;;;;;0.70;0.70;;;21.90;76.20;;;;;;5068770;28;44490;-73
2023/08/01 12:28:57;;;;;;;0.80;0.80;;;21.80;76.70;;;;;;5067183;28;45396;-73
2023/08/01 12:31:24;;;;;;;0.90;0.90;;;21.90;76.80;;;;;;5067771;28;43369;-74
2023/08/01 12:33:53;;;;;;;1.00;1.00;;;21.80;76.60;;;;;;5068451;28;43413;-74
2023/08/01 12:36:21;;;;;;;0.70;0.70;;;21.80;76.60;;;;;;5062166;28;43380;-74
2023/08/01 12:38:50;;;;;;;0.70;0.70;;;21.80;76.60;;;;;;5067874;28;43598;-73
2023/08/01 12:41:18;;;;;;;0.73;0.73;;;21.70;77.10;;;;;;5061155;28;44606;-74
2023/08/01 12:43:48;;;;;;;0.70;0.70;;;21.80;77.00;;;;;;5068770;28;43455;-72
2023/08/01 12:46:16;;;;;;;0.73;0.73;;;21.90;76.70;;;;;;5062934;28;43396;-73
2023/08/01 12:48:44;;;;;;;0.70;0.70;;;22.00;76.20;;;;;;5066998;28;45695;-72
2023/08/01 12:51:14;;;;;;;0.70;0.70;;;22.10;76.50;;;;;;5068344;28;43434;-73
2023/08/01 12:53:42;;;;;;;0.83;0.83;;;22.10;75.60;;;;;;5068524;28;43853;-73
2023/08/01 12:56:12;;;;;;;0.87;0.87;;;22.10;75.60;;;;;;5067413;28;43517;-72